sensor_id;sensor_type;location;lat;lon;timestamp;P1;durP1;ratioP1;P2;durP2;ratioP2
25349;SDS011;13302;48.796;11.978;2023-07-30T00:00:53;4.13;;;2.60;;
25349;SDS011;13302;48.796;11.978;2023-07-30T00:03:40;3.07;;;2.20;;
25349;SDS011;13302;48.796;11.978;2023-07-30T00:06:27;2.20;;;2.10;;
25349;SDS011;13302;48.796;11.978;2023-07-30T00:09:14;2.30;;;2.20;;
25349;SDS011;13302;48.796;11.978;2023-07-30T00:12:01;2.37;;;2.27;;
25349;SDS011;13302;48.796;11.978;2023-07-30T00:14:49;2.10;;;2.00;;
25349;SDS011;13302;48.796;11.978;2023-07-30T00:17:36;2.30;;;2.20;;
25349;SDS011;13302;48.796;11.978;2023-07-30T00:20:23;2.67;;;2.47;;
25349;SDS011;13302;48.796;11.978;2023-07-30T00:23:10;2.40;;;2.30;;
25349;SDS011;13302;48.796;11.978;2023-07-30T00:25:57;2.30;;;2.20;;
25349;SDS011;13302;48.796;11.978;2023-07-30T00:28:44;2.33;;;2.23;;
25349;SDS011;13302;48.796;11.978;2023-07-30T00:31:31;2.17;;;2.07;;
25349;SDS011;13302;48.796;11.978;2023-07-30T00:34:18;2.40;;;2.20;;
25349;SDS011;13302;48.796;11.978;2023-07-30T00:37:05;2.27;;;2.17;;
25349;SDS011;13302;48.796;11.978;2023-07-30T00:39:52;1.93;;;1.90;;
25349;SDS011;13302;48.796;11.978;2023-07-30T00:42:39;2.53;;;2.43;;
25349;SDS011;13302;48.796;11.978;2023-07-30T00:45:26;3.00;;;2.33;;
25349;SDS011;13302;48.796;11.978;2023-07-30T00:48:13;2.60;;;2.40;;
25349;SDS011;13302;48.796;11.978;2023-07-30T00:51:01;2.40;;;2.30;;
25349;SDS011;13302;48.796;11.978;2023-07-30T00:53:51;2.37;;;2.23;;
25349;SDS011;13302;48.796;11.978;2023-07-30T00:56:38;2.20;;;2.00;;
25349;SDS011;13302;48.796;11.978;2023-07-30T00:59:35;2.20;;;2.10;;
25349;SDS011;13302;48.796;11.978;2023-07-30T01:02:22;2.47;;;2.37;;
25349;SDS011;13302;48.796;11.978;2023-07-30T01:05:09;2.13;;;2.03;;
25349;SDS011;13302;48.796;11.978;2023-07-30T01:07:57;2.93;;;2.20;;
25349;SDS011;13302;48.796;11.978;2023-07-30T01:10:44;2.27;;;2.17;;
25349;SDS011;13302;48.796;11.978;2023-07-30T01:13:31;2.47;;;2.37;;
25349;SDS011;13302;48.796;11.978;2023-07-30T01:16:20;2.60;;;2.47;;
25349;SDS011;13302;48.796;11.978;2023-07-30T01:19:07;2.43;;;2.23;;
25349;SDS011;13302;48.796;11.978;2023-07-30T01:21:55;2.10;;;2.00;;
25349;SDS011;13302;48.796;11.978;2023-07-30T01:24:42;2.80;;;2.47;;
25349;SDS011;13302;48.796;11.978;2023-07-30T01:27:30;2.23;;;2.13;;
25349;SDS011;13302;48.796;11.978;2023-07-30T01:30:30;2.30;;;2.20;;
25349;SDS011;13302;48.796;11.978;2023-07-30T01:33:20;2.77;;;2.17;;
25349;SDS011;13302;48.796;11.978;2023-07-30T01:36:08;2.47;;;2.37;;
25349;SDS011;13302;48.796;11.978;2023-07-30T01:38:57;2.63;;;2.43;;
25349;SDS011;13302;48.796;11.978;2023-07-30T01:41:46;2.17;;;2.07;;
25349;SDS011;13302;48.796;11.978;2023-07-30T01:44:33;2.10;;;1.90;;
25349;SDS011;13302;48.796;11.978;2023-07-30T01:47:20;2.30;;;2.20;;
25349;SDS011;13302;48.796;11.978;2023-07-30T01:50:07;2.20;;;2.10;;
25349;SDS011;13302;48.796;11.978;2023-07-30T01:52:54;2.10;;;2.00;;
25349;SDS011;13302;48.796;11.978;2023-07-30T01:55:41;2.40;;;2.30;;
25349;SDS011;13302;48.796;11.978;2023-07-30T01:58:30;2.30;;;2.20;;
25349;SDS011;13302;48.796;11.978;2023-07-30T02:01:17;1.97;;;1.93;;
25349;SDS011;13302;48.796;11.978;2023-07-30T02:04:04;2.20;;;2.10;;
25349;SDS011;13302;48.796;11.978;2023-07-30T02:06:51;2.07;;;1.97;;
25349;SDS011;13302;48.796;11.978;2023-07-30T02:09:38;1.87;;;1.80;;
25349;SDS011;13302;48.796;11.978;2023-07-30T02:12:25;2.20;;;2.00;;
25349;SDS011;13302;48.796;11.978;2023-07-30T02:15:12;1.87;;;1.80;;
25349;SDS011;13302;48.796;11.978;2023-07-30T02:18:00;2.00;;;1.90;;
25349;SDS011;13302;48.796;11.978;2023-07-30T02:20:47;2.03;;;2.00;;
25349;SDS011;13302;48.796;11.978;2023-07-30T02:23:34;3.33;;;2.80;;
25349;SDS011;13302;48.796;11.978;2023-07-30T02:26:21;2.43;;;2.23;;
25349;SDS011;13302;48.796;11.978;2023-07-30T02:29:08;2.00;;;1.90;;
25349;SDS011;13302;48.796;11.978;2023-07-30T02:31:55;2.20;;;2.00;;
25349;SDS011;13302;48.796;11.978;2023-07-30T02:34:42;1.70;;;1.60;;
25349;SDS011;13302;48.796;11.978;2023-07-30T02:37:29;3.03;;;1.67;;
25349;SDS011;13302;48.796;11.978;2023-07-30T02:40:16;1.67;;;1.57;;
25349;SDS011;13302;48.796;11.978;2023-07-30T02:43:04;1.70;;;1.60;;
25349;SDS011;13302;48.796;11.978;2023-07-30T02:45:51;1.30;;;1.30;;
25349;SDS011;13302;48.796;11.978;2023-07-30T02:48:38;1.70;;;1.60;;
25349;SDS011;13302;48.796;11.978;2023-07-30T02:51:25;1.90;;;1.70;;
25349;SDS011;13302;48.796;11.978;2023-07-30T02:54:12;1.53;;;1.53;;
25349;SDS011;13302;48.796;11.978;2023-07-30T02:57:00;1.53;;;1.50;;
25349;SDS011;13302;48.796;11.978;2023-07-30T02:59:47;3.03;;;1.30;;
25349;SDS011;13302;48.796;11.978;2023-07-30T03:02:34;1.57;;;1.47;;
25349;SDS011;13302;48.796;11.978;2023-07-30T03:05:22;2.63;;;1.60;;
25349;SDS011;13302;48.796;11.978;2023-07-30T03:08:09;1.00;;;1.00;;
25349;SDS011;13302;48.796;11.978;2023-07-30T03:10:59;0.90;;;0.90;;
25349;SDS011;13302;48.796;11.978;2023-07-30T03:13:46;0.80;;;0.80;;
25349;SDS011;13302;48.796;11.978;2023-07-30T03:16:33;0.87;;;0.87;;
25349;SDS011;13302;48.796;11.978;2023-07-30T03:19:20;1.10;;;1.10;;
25349;SDS011;13302;48.796;11.978;2023-07-30T03:22:07;0.90;;;0.90;;
25349;SDS011;13302;48.796;11.978;2023-07-30T03:24:54;0.80;;;0.80;;
25349;SDS011;13302;48.796;11.978;2023-07-30T03:27:41;0.77;;;0.77;;
25349;SDS011;13302;48.796;11.978;2023-07-30T03:30:28;1.03;;;0.90;;
25349;SDS011;13302;48.796;11.978;2023-07-30T03:33:16;0.73;;;0.73;;
25349;SDS011;13302;48.796;11.978;2023-07-30T03:36:03;0.90;;;0.90;;
25349;SDS011;13302;48.796;11.978;2023-07-30T03:38:50;0.93;;;0.93;;
25349;SDS011;13302;48.796;11.978;2023-07-30T03:41:37;1.47;;;0.90;;
25349;SDS011;13302;48.796;11.978;2023-07-30T03:44:25;1.00;;;1.00;;
25349;SDS011;13302;48.796;11.978;2023-07-30T03:47:12;1.10;;;1.00;;
25349;SDS011;13302;48.796;11.978;2023-07-30T03:49:59;1.17;;;0.87;;
25349;SDS011;13302;48.796;11.978;2023-07-30T03:52:46;0.80;;;0.80;;
25349;SDS011;13302;48.796;11.978;2023-07-30T03:55:33;2.60;;;1.20;;
25349;SDS011;13302;48.796;11.978;2023-07-30T03:58:20;1.00;;;1.00;;
25349;SDS011;13302;48.796;11.978;2023-07-30T04:01:08;1.20;;;0.90;;
25349;SDS011;13302;48.796;11.978;2023-07-30T04:03:55;1.30;;;1.20;;
25349;SDS011;13302;48.796;11.978;2023-07-30T04:06:43;0.90;;;0.90;;
25349;SDS011;13302;48.796;11.978;2023-07-30T04:09:30;1.20;;;1.20;;
25349;SDS011;13302;48.796;11.978;2023-07-30T04:12:18;1.00;;;1.00;;
25349;SDS011;13302;48.796;11.978;2023-07-30T04:15:08;1.40;;;0.90;;
25349;SDS011;13302;48.796;11.978;2023-07-30T04:17:55;0.97;;;0.97;;
25349;SDS011;13302;48.796;11.978;2023-07-30T04:20:43;1.03;;;1.03;;
25349;SDS011;13302;48.796;11.978;2023-07-30T04:23:30;0.87;;;0.87;;
25349;SDS011;13302;48.796;11.978;2023-07-30T04:26:17;1.07;;;1.00;;
25349;SDS011;13302;48.796;11.978;2023-07-30T04:29:04;0.93;;;0.93;;
25349;SDS011;13302;48.796;11.978;2023-07-30T04:31:52;1.40;;;0.90;;
25349;SDS011;13302;48.796;11.978;2023-07-30T04:34:39;1.63;;;1.00;;
25349;SDS011;13302;48.796;11.978;2023-07-30T04:37:26;1.00;;;1.00;;
25349;SDS011;13302;48.796;11.978;2023-07-30T04:40:13;1.10;;;1.03;;
25349;SDS011;13302;48.796;11.978;2023-07-30T04:43:00;1.10;;;1.10;;
25349;SDS011;13302;48.796;11.978;2023-07-30T04:45:47;1.10;;;1.00;;
25349;SDS011;13302;48.796;11.978;2023-07-30T04:48:36;1.10;;;1.00;;
25349;SDS011;13302;48.796;11.978;2023-07-30T04:51:24;1.00;;;1.00;;
25349;SDS011;13302;48.796;11.978;2023-07-30T04:54:11;1.07;;;1.00;;
25349;SDS011;13302;48.796;11.978;2023-07-30T04:56:59;1.00;;;1.00;;
25349;SDS011;13302;48.796;11.978;2023-07-30T04:59:46;0.93;;;0.93;;
25349;SDS011;13302;48.796;11.978;2023-07-30T05:02:33;1.30;;;1.20;;
25349;SDS011;13302;48.796;11.978;2023-07-30T05:05:20;1.00;;;0.97;;
25349;SDS011;13302;48.796;11.978;2023-07-30T05:08:07;0.90;;;0.90;;
25349;SDS011;13302;48.796;11.978;2023-07-30T05:10:54;1.00;;;1.00;;
25349;SDS011;13302;48.796;11.978;2023-07-30T05:13:41;1.00;;;1.00;;
25349;SDS011;13302;48.796;11.978;2023-07-30T05:16:28;1.30;;;1.30;;
25349;SDS011;13302;48.796;11.978;2023-07-30T05:19:15;0.93;;;0.93;;
25349;SDS011;13302;48.796;11.978;2023-07-30T05:22:03;1.43;;;1.23;;
25349;SDS011;13302;48.796;11.978;2023-07-30T05:24:51;1.00;;;1.00;;
25349;SDS011;13302;48.796;11.978;2023-07-30T05:27:38;1.63;;;1.47;;
25349;SDS011;13302;48.796;11.978;2023-07-30T05:30:25;1.20;;;1.20;;
25349;SDS011;13302;48.796;11.978;2023-07-30T05:33:12;1.10;;;1.10;;
25349;SDS011;13302;48.796;11.978;2023-07-30T05:35:59;1.10;;;1.00;;
25349;SDS011;13302;48.796;11.978;2023-07-30T05:38:46;1.40;;;1.10;;
25349;SDS011;13302;48.796;11.978;2023-07-30T05:41:33;1.50;;;1.13;;
25349;SDS011;13302;48.796;11.978;2023-07-30T05:44:21;1.47;;;1.43;;
25349;SDS011;13302;48.796;11.978;2023-07-30T05:47:08;1.47;;;1.40;;
25349;SDS011;13302;48.796;11.978;2023-07-30T05:49:55;1.40;;;1.10;;
25349;SDS011;13302;48.796;11.978;2023-07-30T05:52:42;1.17;;;1.17;;
25349;SDS011;13302;48.796;11.978;2023-07-30T05:55:29;1.30;;;1.30;;
25349;SDS011;13302;48.796;11.978;2023-07-30T05:58:16;1.57;;;1.57;;
25349;SDS011;13302;48.796;11.978;2023-07-30T06:01:03;1.40;;;1.30;;
25349;SDS011;13302;48.796;11.978;2023-07-30T06:03:50;1.40;;;1.30;;
25349;SDS011;13302;48.796;11.978;2023-07-30T06:06:37;1.73;;;1.60;;
25349;SDS011;13302;48.796;11.978;2023-07-30T06:09:24;1.27;;;1.27;;
25349;SDS011;13302;48.796;11.978;2023-07-30T06:12:11;1.43;;;1.33;;
25349;SDS011;13302;48.796;11.978;2023-07-30T06:14:58;1.53;;;1.43;;
25349;SDS011;13302;48.796;11.978;2023-07-30T06:17:45;1.20;;;1.20;;
25349;SDS011;13302;48.796;11.978;2023-07-30T06:20:32;1.67;;;1.60;;
25349;SDS011;13302;48.796;11.978;2023-07-30T06:23:19;1.80;;;1.70;;
25349;SDS011;13302;48.796;11.978;2023-07-30T06:26:06;1.70;;;1.70;;
25349;SDS011;13302;48.796;11.978;2023-07-30T06:28:53;1.80;;;1.60;;
25349;SDS011;13302;48.796;11.978;2023-07-30T06:31:40;1.97;;;1.87;;
25349;SDS011;13302;48.796;11.978;2023-07-30T06:34:27;1.80;;;1.70;;
25349;SDS011;13302;48.796;11.978;2023-07-30T06:37:15;1.67;;;1.67;;
25349;SDS011;13302;48.796;11.978;2023-07-30T06:40:02;1.97;;;1.50;;
25349;SDS011;13302;48.796;11.978;2023-07-30T06:42:52;1.73;;;1.70;;
25349;SDS011;13302;48.796;11.978;2023-07-30T06:45:39;2.00;;;1.90;;
25349;SDS011;13302;48.796;11.978;2023-07-30T06:48:26;1.90;;;1.90;;
25349;SDS011;13302;48.796;11.978;2023-07-30T06:51:13;2.10;;;2.00;;
25349;SDS011;13302;48.796;11.978;2023-07-30T06:54:01;2.13;;;2.03;;
25349;SDS011;13302;48.796;11.978;2023-07-30T06:56:48;2.30;;;2.10;;
25349;SDS011;13302;48.796;11.978;2023-07-30T06:59:35;2.20;;;2.10;;
25349;SDS011;13302;48.796;11.978;2023-07-30T07:02:22;2.10;;;2.00;;
25349;SDS011;13302;48.796;11.978;2023-07-30T07:05:09;2.13;;;2.00;;
25349;SDS011;13302;48.796;11.978;2023-07-30T07:07:56;2.20;;;2.10;;
25349;SDS011;13302;48.796;11.978;2023-07-30T07:10:44;2.10;;;2.00;;
25349;SDS011;13302;48.796;11.978;2023-07-30T07:13:31;2.00;;;1.90;;
25349;SDS011;13302;48.796;11.978;2023-07-30T07:16:18;2.47;;;2.13;;
25349;SDS011;13302;48.796;11.978;2023-07-30T07:19:05;2.20;;;2.10;;
25349;SDS011;13302;48.796;11.978;2023-07-30T07:21:52;2.37;;;2.27;;
25349;SDS011;13302;48.796;11.978;2023-07-30T07:24:39;2.40;;;2.30;;
25349;SDS011;13302;48.796;11.978;2023-07-30T07:27:26;2.10;;;2.00;;
25349;SDS011;13302;48.796;11.978;2023-07-30T07:30:13;2.30;;;2.20;;
25349;SDS011;13302;48.796;11.978;2023-07-30T07:33:00;2.60;;;2.50;;
25349;SDS011;13302;48.796;11.978;2023-07-30T07:35:48;2.53;;;2.43;;
25349;SDS011;13302;48.796;11.978;2023-07-30T07:38:35;3.30;;;3.10;;
25349;SDS011;13302;48.796;11.978;2023-07-30T07:41:22;2.80;;;2.60;;
25349;SDS011;13302;48.796;11.978;2023-07-30T07:44:09;2.40;;;2.30;;
25349;SDS011;13302;48.796;11.978;2023-07-30T07:46:56;2.60;;;2.50;;
25349;SDS011;13302;48.796;11.978;2023-07-30T07:49:43;2.67;;;2.57;;
25349;SDS011;13302;48.796;11.978;2023-07-30T07:52:30;2.60;;;2.50;;
25349;SDS011;13302;48.796;11.978;2023-07-30T07:55:17;2.60;;;2.50;;
25349;SDS011;13302;48.796;11.978;2023-07-30T07:58:04;2.63;;;2.53;;
25349;SDS011;13302;48.796;11.978;2023-07-30T08:00:54;3.00;;;2.90;;
25349;SDS011;13302;48.796;11.978;2023-07-30T08:03:41;2.93;;;2.63;;
25349;SDS011;13302;48.796;11.978;2023-07-30T08:06:28;2.90;;;2.80;;
25349;SDS011;13302;48.796;11.978;2023-07-30T08:09:16;2.70;;;2.60;;
25349;SDS011;13302;48.796;11.978;2023-07-30T08:12:03;2.70;;;2.60;;
25349;SDS011;13302;48.796;11.978;2023-07-30T08:14:51;2.90;;;2.80;;
25349;SDS011;13302;48.796;11.978;2023-07-30T08:17:38;2.87;;;2.77;;
25349;SDS011;13302;48.796;11.978;2023-07-30T08:20:25;3.00;;;2.80;;
25349;SDS011;13302;48.796;11.978;2023-07-30T08:23:12;3.53;;;3.23;;
25349;SDS011;13302;48.796;11.978;2023-07-30T08:25:59;3.30;;;3.20;;
25349;SDS011;13302;48.796;11.978;2023-07-30T08:28:46;3.60;;;3.40;;
25349;SDS011;13302;48.796;11.978;2023-07-30T08:31:33;3.90;;;3.63;;
25349;SDS011;13302;48.796;11.978;2023-07-30T08:34:21;4.27;;;4.03;;
25349;SDS011;13302;48.796;11.978;2023-07-30T08:37:09;4.40;;;4.20;;
25349;SDS011;13302;48.796;11.978;2023-07-30T08:39:56;4.33;;;3.93;;
25349;SDS011;13302;48.796;11.978;2023-07-30T08:42:43;4.37;;;4.07;;
25349;SDS011;13302;48.796;11.978;2023-07-30T08:45:30;4.33;;;4.07;;
25349;SDS011;13302;48.796;11.978;2023-07-30T08:48:17;3.90;;;3.70;;
25349;SDS011;13302;48.796;11.978;2023-07-30T08:51:04;3.83;;;3.63;;
25349;SDS011;13302;48.796;11.978;2023-07-30T08:53:52;3.03;;;2.73;;
25349;SDS011;13302;48.796;11.978;2023-07-30T08:56:39;2.93;;;2.50;;
25349;SDS011;13302;48.796;11.978;2023-07-30T08:59:27;2.53;;;2.43;;
25349;SDS011;13302;48.796;11.978;2023-07-30T09:02:21;2.60;;;2.50;;
25349;SDS011;13302;48.796;11.978;2023-07-30T09:05:13;2.50;;;2.40;;
25349;SDS011;13302;48.796;11.978;2023-07-30T09:08:00;2.53;;;2.33;;
25349;SDS011;13302;48.796;11.978;2023-07-30T09:10:47;2.30;;;2.20;;
25349;SDS011;13302;48.796;11.978;2023-07-30T09:13:40;2.00;;;2.00;;
25349;SDS011;13302;48.796;11.978;2023-07-30T09:16:28;2.27;;;2.10;;
25349;SDS011;13302;48.796;11.978;2023-07-30T09:19:16;2.27;;;2.10;;
25349;SDS011;13302;48.796;11.978;2023-07-30T09:22:05;2.13;;;2.03;;
25349;SDS011;13302;48.796;11.978;2023-07-30T09:24:56;2.67;;;2.40;;
25349;SDS011;13302;48.796;11.978;2023-07-30T09:27:43;1.93;;;1.93;;
25349;SDS011;13302;48.796;11.978;2023-07-30T09:30:35;1.97;;;1.97;;
25349;SDS011;13302;48.796;11.978;2023-07-30T09:33:22;2.30;;;2.10;;
25349;SDS011;13302;48.796;11.978;2023-07-30T09:36:09;2.37;;;2.27;;
25349;SDS011;13302;48.796;11.978;2023-07-30T09:38:57;1.70;;;1.70;;
25349;SDS011;13302;48.796;11.978;2023-07-30T09:41:44;1.93;;;1.83;;
25349;SDS011;13302;48.796;11.978;2023-07-30T09:44:32;1.50;;;1.50;;
25349;SDS011;13302;48.796;11.978;2023-07-30T09:47:23;1.87;;;1.77;;
25349;SDS011;13302;48.796;11.978;2023-07-30T09:50:13;1.53;;;1.40;;
25349;SDS011;13302;48.796;11.978;2023-07-30T09:53:01;1.73;;;1.73;;
25349;SDS011;13302;48.796;11.978;2023-07-30T09:55:50;1.80;;;1.80;;
25349;SDS011;13302;48.796;11.978;2023-07-30T09:58:37;1.43;;;1.43;;
25349;SDS011;13302;48.796;11.978;2023-07-30T10:01:25;1.50;;;1.50;;
25349;SDS011;13302;48.796;11.978;2023-07-30T10:04:14;2.00;;;1.60;;
25349;SDS011;13302;48.796;11.978;2023-07-30T10:07:03;1.83;;;1.73;;
25349;SDS011;13302;48.796;11.978;2023-07-30T10:09:54;1.63;;;1.63;;
25349;SDS011;13302;48.796;11.978;2023-07-30T10:12:46;1.60;;;1.60;;
25349;SDS011;13302;48.796;11.978;2023-07-30T10:15:35;1.80;;;1.70;;
25349;SDS011;13302;48.796;11.978;2023-07-30T10:18:37;2.17;;;2.00;;
25349;SDS011;13302;48.796;11.978;2023-07-30T10:21:26;2.20;;;2.10;;
25349;SDS011;13302;48.796;11.978;2023-07-30T10:24:16;1.77;;;1.77;;
25349;SDS011;13302;48.796;11.978;2023-07-30T10:27:07;1.87;;;1.87;;
25349;SDS011;13302;48.796;11.978;2023-07-30T10:35:47;1.80;;;1.70;;
25349;SDS011;13302;48.796;11.978;2023-07-30T10:38:34;1.63;;;1.63;;
25349;SDS011;13302;48.796;11.978;2023-07-30T10:41:21;1.93;;;1.83;;
25349;SDS011;13302;48.796;11.978;2023-07-30T10:44:08;1.90;;;1.80;;
25349;SDS011;13302;48.796;11.978;2023-07-30T10:47:05;1.60;;;1.60;;
25349;SDS011;13302;48.796;11.978;2023-07-30T10:49:52;1.53;;;1.53;;
25349;SDS011;13302;48.796;11.978;2023-07-30T10:52:40;2.07;;;1.87;;
25349;SDS011;13302;48.796;11.978;2023-07-30T10:55:29;2.40;;;2.10;;
25349;SDS011;13302;48.796;11.978;2023-07-30T10:58:17;1.60;;;1.60;;
25349;SDS011;13302;48.796;11.978;2023-07-30T11:01:05;1.90;;;1.90;;
25349;SDS011;13302;48.796;11.978;2023-07-30T11:03:53;1.90;;;1.80;;
25349;SDS011;13302;48.796;11.978;2023-07-30T11:06:50;1.70;;;1.60;;
25349;SDS011;13302;48.796;11.978;2023-07-30T11:09:38;1.90;;;1.80;;
25349;SDS011;13302;48.796;11.978;2023-07-30T11:12:25;1.90;;;1.90;;
25349;SDS011;13302;48.796;11.978;2023-07-30T11:15:12;1.93;;;1.87;;
25349;SDS011;13302;48.796;11.978;2023-07-30T11:17:59;1.60;;;1.60;;
25349;SDS011;13302;48.796;11.978;2023-07-30T11:20:46;2.00;;;1.90;;
25349;SDS011;13302;48.796;11.978;2023-07-30T11:23:34;1.90;;;1.60;;
25349;SDS011;13302;48.796;11.978;2023-07-30T11:26:22;1.47;;;1.47;;
25349;SDS011;13302;48.796;11.978;2023-07-30T11:29:16;1.60;;;1.60;;
25349;SDS011;13302;48.796;11.978;2023-07-30T11:32:04;1.50;;;1.50;;
25349;SDS011;13302;48.796;11.978;2023-07-30T11:34:54;1.97;;;1.87;;
25349;SDS011;13302;48.796;11.978;2023-07-30T11:37:41;1.67;;;1.57;;
25349;SDS011;13302;48.796;11.978;2023-07-30T11:40:29;2.40;;;1.70;;
25349;SDS011;13302;48.796;11.978;2023-07-30T11:43:16;1.50;;;1.40;;
25349;SDS011;13302;48.796;11.978;2023-07-30T11:46:06;1.57;;;1.57;;
25349;SDS011;13302;48.796;11.978;2023-07-30T11:49:10;1.73;;;1.63;;
25349;SDS011;13302;48.796;11.978;2023-07-30T11:52:07;1.20;;;1.20;;
25349;SDS011;13302;48.796;11.978;2023-07-30T11:55:03;1.67;;;1.37;;
25349;SDS011;13302;48.796;11.978;2023-07-30T11:57:51;1.50;;;1.50;;
25349;SDS011;13302;48.796;11.978;2023-07-30T12:00:39;1.43;;;1.43;;
25349;SDS011;13302;48.796;11.978;2023-07-30T12:03:27;1.27;;;1.27;;
25349;SDS011;13302;48.796;11.978;2023-07-30T12:06:14;1.70;;;1.70;;
25349;SDS011;13302;48.796;11.978;2023-07-30T12:09:02;1.60;;;1.50;;
25349;SDS011;13302;48.796;11.978;2023-07-30T12:11:59;1.63;;;1.63;;
25349;SDS011;13302;48.796;11.978;2023-07-30T12:17:37;1.80;;;1.30;;
25349;SDS011;13302;48.796;11.978;2023-07-30T12:20:27;0.83;;;0.83;;
25349;SDS011;13302;48.796;11.978;2023-07-30T12:23:14;1.53;;;1.43;;
25349;SDS011;13302;48.796;11.978;2023-07-30T12:26:02;1.00;;;1.00;;
25349;SDS011;13302;48.796;11.978;2023-07-30T12:28:51;1.30;;;1.20;;
25349;SDS011;13302;48.796;11.978;2023-07-30T12:31:38;1.10;;;1.10;;
25349;SDS011;13302;48.796;11.978;2023-07-30T12:34:25;1.20;;;1.20;;
25349;SDS011;13302;48.796;11.978;2023-07-30T12:37:12;1.10;;;1.10;;
25349;SDS011;13302;48.796;11.978;2023-07-30T12:39:59;1.20;;;1.20;;
25349;SDS011;13302;48.796;11.978;2023-07-30T12:42:46;1.00;;;1.00;;
25349;SDS011;13302;48.796;11.978;2023-07-30T12:45:33;1.17;;;1.17;;
25349;SDS011;13302;48.796;11.978;2023-07-30T12:48:20;2.57;;;1.27;;
25349;SDS011;13302;48.796;11.978;2023-07-30T12:51:07;1.43;;;1.40;;
25349;SDS011;13302;48.796;11.978;2023-07-30T12:53:54;1.40;;;1.40;;
25349;SDS011;13302;48.796;11.978;2023-07-30T12:56:41;1.13;;;1.13;;
25349;SDS011;13302;48.796;11.978;2023-07-30T12:59:29;1.37;;;1.37;;
25349;SDS011;13302;48.796;11.978;2023-07-30T13:02:16;1.30;;;1.30;;
25349;SDS011;13302;48.796;11.978;2023-07-30T13:05:03;1.37;;;1.30;;
25349;SDS011;13302;48.796;11.978;2023-07-30T13:07:50;1.40;;;1.40;;
25349;SDS011;13302;48.796;11.978;2023-07-30T13:10:37;1.80;;;1.80;;
25349;SDS011;13302;48.796;11.978;2023-07-30T13:13:24;1.60;;;1.50;;
25349;SDS011;13302;48.796;11.978;2023-07-30T13:16:11;1.40;;;1.40;;
25349;SDS011;13302;48.796;11.978;2023-07-30T13:18:58;1.27;;;1.17;;
25349;SDS011;13302;48.796;11.978;2023-07-30T13:21:45;1.40;;;1.40;;
25349;SDS011;13302;48.796;11.978;2023-07-30T13:24:32;1.00;;;1.00;;
25349;SDS011;13302;48.796;11.978;2023-07-30T13:27:21;1.20;;;1.20;;
25349;SDS011;13302;48.796;11.978;2023-07-30T13:30:09;1.00;;;1.00;;
25349;SDS011;13302;48.796;11.978;2023-07-30T13:32:56;1.40;;;1.40;;
25349;SDS011;13302;48.796;11.978;2023-07-30T13:35:44;1.47;;;1.40;;
25349;SDS011;13302;48.796;11.978;2023-07-30T13:38:31;1.30;;;1.20;;
25349;SDS011;13302;48.796;11.978;2023-07-30T13:41:18;1.17;;;1.17;;
25349;SDS011;13302;48.796;11.978;2023-07-30T13:44:05;1.50;;;1.50;;
25349;SDS011;13302;48.796;11.978;2023-07-30T13:46:52;1.30;;;1.30;;
25349;SDS011;13302;48.796;11.978;2023-07-30T13:49:40;1.40;;;1.30;;
25349;SDS011;13302;48.796;11.978;2023-07-30T13:52:27;1.20;;;1.20;;
25349;SDS011;13302;48.796;11.978;2023-07-30T13:55:14;1.57;;;1.47;;
25349;SDS011;13302;48.796;11.978;2023-07-30T13:58:03;1.70;;;1.60;;
25349;SDS011;13302;48.796;11.978;2023-07-30T14:00:53;1.23;;;1.23;;
25349;SDS011;13302;48.796;11.978;2023-07-30T14:03:40;1.40;;;1.40;;
25349;SDS011;13302;48.796;11.978;2023-07-30T14:06:27;1.60;;;1.40;;
25349;SDS011;13302;48.796;11.978;2023-07-30T14:09:14;1.30;;;1.20;;
25349;SDS011;13302;48.796;11.978;2023-07-30T14:12:02;1.57;;;1.50;;
25349;SDS011;13302;48.796;11.978;2023-07-30T14:14:50;1.37;;;1.37;;
25349;SDS011;13302;48.796;11.978;2023-07-30T14:17:37;1.40;;;1.33;;
25349;SDS011;13302;48.796;11.978;2023-07-30T14:20:24;1.47;;;1.47;;
25349;SDS011;13302;48.796;11.978;2023-07-30T14:23:11;1.77;;;1.70;;
25349;SDS011;13302;48.796;11.978;2023-07-30T14:25:59;1.10;;;1.10;;
25349;SDS011;13302;48.796;11.978;2023-07-30T14:28:46;1.63;;;1.20;;
25349;SDS011;13302;48.796;11.978;2023-07-30T14:31:33;1.50;;;1.40;;
25349;SDS011;13302;48.796;11.978;2023-07-30T14:34:20;1.63;;;1.53;;
25349;SDS011;13302;48.796;11.978;2023-07-30T14:37:07;1.60;;;1.60;;
25349;SDS011;13302;48.796;11.978;2023-07-30T14:39:56;1.57;;;1.50;;
25349;SDS011;13302;48.796;11.978;2023-07-30T14:42:43;1.40;;;1.40;;
25349;SDS011;13302;48.796;11.978;2023-07-30T14:45:30;1.40;;;1.30;;
25349;SDS011;13302;48.796;11.978;2023-07-30T14:48:17;2.20;;;1.50;;
25349;SDS011;13302;48.796;11.978;2023-07-30T14:51:04;1.70;;;1.60;;
25349;SDS011;13302;48.796;11.978;2023-07-30T14:53:51;1.53;;;1.43;;
25349;SDS011;13302;48.796;11.978;2023-07-30T14:56:38;1.50;;;1.50;;
25349;SDS011;13302;48.796;11.978;2023-07-30T14:59:25;1.70;;;1.60;;
25349;SDS011;13302;48.796;11.978;2023-07-30T15:02:12;1.50;;;1.50;;
25349;SDS011;13302;48.796;11.978;2023-07-30T15:05:00;1.77;;;1.77;;
25349;SDS011;13302;48.796;11.978;2023-07-30T15:07:47;1.40;;;1.40;;
25349;SDS011;13302;48.796;11.978;2023-07-30T15:10:34;1.70;;;1.60;;
25349;SDS011;13302;48.796;11.978;2023-07-30T15:13:21;1.70;;;1.60;;
25349;SDS011;13302;48.796;11.978;2023-07-30T15:16:10;1.50;;;1.50;;
25349;SDS011;13302;48.796;11.978;2023-07-30T15:18:57;2.17;;;1.57;;
25349;SDS011;13302;48.796;11.978;2023-07-30T15:21:45;1.50;;;1.40;;
25349;SDS011;13302;48.796;11.978;2023-07-30T15:24:32;1.60;;;1.60;;
25349;SDS011;13302;48.796;11.978;2023-07-30T15:27:21;1.50;;;1.50;;
25349;SDS011;13302;48.796;11.978;2023-07-30T15:30:08;1.33;;;1.33;;
25349;SDS011;13302;48.796;11.978;2023-07-30T15:32:55;1.63;;;1.53;;
25349;SDS011;13302;48.796;11.978;2023-07-30T15:35:42;1.70;;;1.60;;
25349;SDS011;13302;48.796;11.978;2023-07-30T15:38:29;1.60;;;1.50;;
25349;SDS011;13302;48.796;11.978;2023-07-30T15:41:17;1.70;;;1.60;;
25349;SDS011;13302;48.796;11.978;2023-07-30T15:44:05;1.33;;;1.33;;
25349;SDS011;13302;48.796;11.978;2023-07-30T15:46:51;2.00;;;1.90;;
25349;SDS011;13302;48.796;11.978;2023-07-30T15:49:39;1.70;;;1.43;;
25349;SDS011;13302;48.796;11.978;2023-07-30T15:52:26;1.80;;;1.70;;
25349;SDS011;13302;48.796;11.978;2023-07-30T15:55:13;2.13;;;1.70;;
25349;SDS011;13302;48.796;11.978;2023-07-30T15:58:00;1.57;;;1.50;;
25349;SDS011;13302;48.796;11.978;2023-07-30T16:00:48;3.03;;;1.60;;
25349;SDS011;13302;48.796;11.978;2023-07-30T16:03:38;1.70;;;1.60;;
25349;SDS011;13302;48.796;11.978;2023-07-30T16:06:26;1.57;;;1.50;;
25349;SDS011;13302;48.796;11.978;2023-07-30T16:09:13;2.50;;;1.43;;
25349;SDS011;13302;48.796;11.978;2023-07-30T16:12:00;1.43;;;1.43;;
25349;SDS011;13302;48.796;11.978;2023-07-30T16:14:50;1.50;;;1.50;;
25349;SDS011;13302;48.796;11.978;2023-07-30T16:17:38;1.93;;;1.50;;
25349;SDS011;13302;48.796;11.978;2023-07-30T16:20:25;1.43;;;1.43;;
25349;SDS011;13302;48.796;11.978;2023-07-30T16:23:12;1.50;;;1.40;;
25349;SDS011;13302;48.796;11.978;2023-07-30T16:25:59;1.43;;;1.33;;
25349;SDS011;13302;48.796;11.978;2023-07-30T16:28:46;1.67;;;1.57;;
25349;SDS011;13302;48.796;11.978;2023-07-30T16:31:33;2.50;;;1.60;;
25349;SDS011;13302;48.796;11.978;2023-07-30T16:34:23;2.07;;;1.83;;
25349;SDS011;13302;48.796;11.978;2023-07-30T16:37:10;2.27;;;1.30;;
25349;SDS011;13302;48.796;11.978;2023-07-30T16:39:57;1.40;;;1.30;;
25349;SDS011;13302;48.796;11.978;2023-07-30T16:42:44;1.30;;;1.20;;